Flight Track Log - Related Links

Times and Time Zones

All times are in EDT time to prevent confusion due to time zone crossing. See the DAL1990 flight status page for this flight to view local times or setup timezone preferences in your user account.

Time Position Orientation Groundspeed Altitude Reporting Facility
EDT Latitude Longitude Course Direction KTS MPH feet Rate Location/Type
Fri 10:03:15 AM 33.6333 -84.3902 271° West  Level FlightAware Approximate
Fri 10:04:28 AM 33.6364 -84.5928 256° West 338 389 5,600  Level Atlanta Center
Fri 10:05:28 AM 33.6194 -84.6725 202° Southwest 271 312 8,700 2,200 Climbing Atlanta Center
Fri 10:06:28 AM 33.5525 -84.7044 171° South 299 344 10,000 1,100 Climbing Atlanta Center
Fri 10:07:28 AM 33.4544 -84.6861 129° Southeast 326 375 10,900 1,550 Climbing Atlanta Center
Fri 10:08:28 AM 33.3839 -84.5811 120° Southeast 336 387 13,100 2,350 Climbing Atlanta Center
Fri 10:09:28 AM 33.3261 -84.4614 121° Southeast 371 427 15,600 2,600 Climbing Atlanta Center
Fri 10:10:28 AM 33.2636 -84.3394 119° Southeast 412 474 18,300 2,050 Climbing Atlanta Center
Fri 10:11:28 AM 33.2056 -84.2150 122° Southeast 431 496 19,700 1,400 Climbing Atlanta Center
Fri 10:12:28 AM 33.1389 -84.0883 126° Southeast 440 506 21,100 1,550 Climbing Atlanta Center
Fri 10:13:28 AM 33.0617 -83.9619 144° Southeast 460 529 22,800 950 Climbing Atlanta Center
Fri 10:14:28 AM 32.9508 -83.8656 146° Southeast 443 510 23,000 100 Climbing Atlanta Center
Fri 10:15:28 AM 32.8442 -83.7792 144° Southeast 454 522 23,000  Level Atlanta Center
Fri 10:16:28 AM 32.7397 -83.6906 122° Southeast 459 528 23,000  Level Atlanta Center
Fri 10:17:28 AM 32.6725 -83.5650 98° East 446 513 23,000  Level Atlanta Center
Fri 10:18:28 AM 32.6550 -83.4172 100° East 426 490 23,000  Level Atlanta Center
Fri 10:19:28 AM 32.6311 -83.2644 100° East 443 510 23,000  Level Atlanta Center
Fri 10:20:28 AM 32.6072 -83.1117 100° East 454 522 23,000  Level Atlanta Center
Fri 10:21:28 AM 32.5853 -82.9664 102° East 454 522 23,000  Level Atlanta Center
Fri 10:22:28 AM 32.5586 -82.8164 107° East 464 534 23,000  Level Atlanta Center
Fri 10:23:28 AM 32.5197 -82.6692 107° East 464 534 23,000 -750 Level Atlanta Center
Fri 10:24:28 AM 32.4825 -82.5294 106° East 452 520 21,500 -1,931 Descending Atlanta Center
Fri 10:26:22 AM 32.4219 -82.2872 108° East 423 487 17,400 -2,276 Descending Jacksonville Center
Fri 10:27:22 AM 32.3836 -82.1447 108° East 409 471 14,900 -2,200 Descending Jacksonville Center
Fri 10:28:22 AM 32.3514 -82.0244 107° East 401 461 13,000 -1,900 Descending Jacksonville Center
Fri 10:29:22 AM 32.3236 -81.9167 103° East 387 445 11,100 -1,150 Descending Jacksonville Center
Fri 10:30:22 AM 32.2975 -81.7867 96° East 377 434 10,700 -600 Descending Jacksonville Center
Fri 10:31:22 AM 32.2881 -81.6858 94° East 351 404 9,900 -850 Descending Jacksonville Center
Fri 10:32:22 AM 32.2808 -81.5731 92° East 320 368 9,000 -1,100 Descending Jacksonville Center
Fri 10:33:22 AM 32.2778 -81.4822 94° East 309 356 7,700 -1,550 Descending Jacksonville Center
Fri 10:34:22 AM 32.2725 -81.3839 95° East 309 356 5,900 -1,950 Descending Jacksonville Center
Fri 10:35:22 AM 32.2647 -81.2783 106° East 304 350 3,800 -1,800 Descending Jacksonville Center
Fri 10:36:22 AM 32.2450 -81.1953 134° Southeast 276 318 2,300 -1,050 Descending Jacksonville Center
Fri 10:37:22 AM 32.2003 -81.1397 134° Southeast 233 268 1,700 -600 Descending Jacksonville Center

Login

Don't have an account? Register now (free) for customized features, flight alerts, and more!